createdAt,value
2022-08-26T00:01:36.555Z,26.12
2022-08-26T00:06:38.413Z,25.91
2022-08-26T00:11:45.355Z,25.83
2022-08-26T00:16:48.429Z,25.89
2022-08-26T00:21:50.583Z,25.88
2022-08-26T00:26:52.908Z,25.97
2022-08-26T00:31:54.645Z,25.73
2022-08-26T00:36:56.083Z,25.83
2022-08-26T00:41:57.657Z,25.86
2022-08-26T00:47:01.363Z,25.83
2022-08-26T00:52:04.858Z,25.73
2022-08-26T00:57:16.286Z,25.81
2022-08-26T01:02:20.176Z,25.75
2022-08-26T01:07:27.528Z,25.66
2022-08-26T01:12:33.644Z,25.69
2022-08-26T01:17:35.203Z,25.77
2022-08-26T01:23:01.580Z,25.69
2022-08-26T01:28:06.316Z,25.56
2022-08-26T01:33:11.445Z,25.72
2022-08-26T01:38:13.708Z,25.63
2022-08-26T01:43:18.036Z,25.58
2022-08-26T01:48:22.170Z,25.73
2022-08-26T01:53:23.685Z,25.66
2022-08-26T01:58:28.282Z,25.66
2022-08-26T02:03:29.894Z,25.62
2022-08-26T02:08:38.964Z,25.66
2022-08-26T02:13:43.311Z,25.61
2022-08-26T02:18:45.219Z,25.69
2022-08-26T02:23:48.664Z,25.39
2022-08-26T02:29:10.222Z,25.30
2022-08-26T02:34:12.972Z,24.98
2022-08-26T02:39:21.961Z,25.27
2022-08-26T02:44:23.932Z,25.46
2022-08-26T02:49:27.107Z,25.40
2022-08-26T02:54:28.844Z,25.48
2022-08-26T02:59:31.386Z,25.11
2022-08-26T03:04:33.375Z,25.54
2022-08-26T03:09:35.096Z,25.31
2022-08-26T03:14:36.687Z,24.94
2022-08-26T03:19:38.340Z,25.32
2022-08-26T03:24:39.919Z,25.29
2022-08-26T03:30:00.255Z,25.52
2022-08-26T03:35:02.700Z,25.43
2022-08-26T03:40:04.786Z,25.22
2022-08-26T03:45:07.663Z,25.43
2022-08-26T03:50:10.254Z,25.42
2022-08-26T03:55:11.842Z,25.29
2022-08-26T04:00:15.386Z,25.49
2022-08-26T04:05:20.477Z,25.47
2022-08-26T04:10:29.004Z,25.62
2022-08-26T04:15:31.048Z,25.27
2022-08-26T04:20:32.575Z,25.07
2022-08-26T04:25:34.386Z,25.13
2022-08-26T04:30:37.784Z,25.21
2022-08-26T04:35:39.679Z,25.09
2022-08-26T04:40:46.815Z,25.32
2022-08-26T04:45:48.986Z,24.93
2022-08-26T04:50:51.402Z,25.20
2022-08-26T04:55:55.191Z,25.26
2022-08-26T05:00:56.951Z,25.29
2022-08-26T05:05:58.563Z,25.49
2022-08-26T05:11:03.730Z,25.51
2022-08-26T05:16:09.744Z,25.49
2022-08-26T05:21:21.299Z,25.32
2022-08-26T05:26:24.021Z,25.41
2022-08-26T05:31:29.461Z,25.51
2022-08-26T05:36:33.380Z,25.45
2022-08-26T05:41:38.555Z,25.59
2022-08-26T05:46:41.060Z,25.53
2022-08-26T05:51:45.246Z,25.73
2022-08-26T05:56:46.844Z,25.73
2022-08-26T06:01:48.480Z,25.88
2022-08-26T06:06:49.906Z,25.87
2022-08-26T06:11:51.488Z,25.88
2022-08-26T06:16:53.016Z,25.95
2022-08-26T06:21:54.847Z,25.55
2022-08-26T06:26:58.187Z,25.99
2022-08-26T06:31:59.910Z,26.16
2022-08-26T06:37:06.411Z,26.02
2022-08-26T06:42:08.295Z,26.21
2022-08-26T06:47:09.691Z,26.33
2022-08-26T06:52:11.259Z,26.51
2022-08-26T06:57:12.670Z,26.43
2022-08-26T07:02:15.879Z,26.76
2022-08-26T07:07:22.088Z,26.90
2022-08-26T07:12:23.766Z,26.94
2022-08-26T07:17:26.647Z,27.10
2022-08-26T07:22:28.983Z,27.18
2022-08-26T07:27:32.083Z,27.37
2022-08-26T07:32:33.535Z,27.39
2022-08-26T07:37:39.157Z,27.58
2022-08-26T07:42:40.987Z,27.74
2022-08-26T07:47:42.378Z,27.78
2022-08-26T07:52:43.903Z,27.63
2022-08-26T07:57:47.550Z,27.70
2022-08-26T08:02:51.223Z,27.49
2022-08-26T08:07:53.523Z,27.60
2022-08-26T08:13:03.436Z,27.08
2022-08-26T08:18:06.605Z,26.93
2022-08-26T08:23:16.937Z,27.00
2022-08-26T08:28:18.900Z,26.63
2022-08-26T08:33:22.890Z,26.91
2022-08-26T08:38:24.322Z,27.13
2022-08-26T08:43:38.178Z,27.34
2022-08-26T08:48:43.406Z,27.33
2022-08-26T08:53:45.875Z,27.61
2022-08-26T08:58:50.159Z,27.78
2022-08-26T09:03:56.098Z,27.73
2022-08-26T09:08:58.526Z,27.58
2022-08-26T09:14:00.348Z,27.72
2022-08-26T09:19:17.025Z,27.47
2022-08-26T09:24:22.211Z,27.25
2022-08-26T09:29:26.239Z,27.13
2022-08-26T09:34:27.898Z,27.03
2022-08-26T09:39:37.700Z,27.21
2022-08-26T09:45:03.946Z,27.11
2022-08-26T09:50:12.531Z,27.24
2022-08-26T09:55:15.612Z,27.22
2022-08-26T10:00:54.746Z,26.96
2022-08-26T10:06:06.897Z,27.21
2022-08-26T10:11:19.142Z,27.38
2022-08-26T10:16:34.700Z,27.48
2022-08-26T10:21:55.062Z,27.29
2022-08-26T10:27:03.205Z,27.36
2022-08-26T10:32:10.330Z,27.45
2022-08-26T10:37:18.308Z,27.55
2022-08-26T10:42:24.748Z,27.40
2022-08-26T10:47:47.730Z,27.35
2022-08-26T10:52:56.355Z,27.38
2022-08-26T10:58:05.062Z,27.40
2022-08-26T11:03:27.984Z,27.35
2022-08-26T11:08:29.700Z,27.07
2022-08-26T11:13:59.897Z,26.46
2022-08-26T11:19:01.620Z,26.74
2022-08-26T11:24:03.677Z,26.41
2022-08-26T11:29:14.519Z,26.68
2022-08-26T11:34:16.075Z,26.22
2022-08-26T11:39:36.833Z,26.25
2022-08-26T11:44:40.676Z,26.27
2022-08-26T11:49:42.266Z,26.41
2022-08-26T11:54:59.229Z,26.67
2022-08-26T12:00:01.347Z,26.73
2022-08-26T12:05:03.007Z,26.35
2022-08-26T12:10:06.177Z,26.36
2022-08-26T12:15:17.782Z,26.05
2022-08-26T12:20:48.553Z,25.96
2022-08-26T12:25:51.897Z,25.95
2022-08-26T12:31:05.657Z,25.92
2022-08-26T12:36:07.323Z,26.09
2022-08-26T12:41:08.941Z,26.16
2022-08-26T12:46:16.446Z,26.11
2022-08-26T12:51:25.811Z,25.87
2022-08-26T12:56:39.073Z,26.05
2022-08-26T13:01:44.176Z,26.14
2022-08-26T13:06:45.787Z,26.30
2022-08-26T13:11:47.533Z,26.12
2022-08-26T13:16:49.337Z,26.00
2022-08-26T13:21:55.396Z,25.82
2022-08-26T13:26:56.976Z,25.95
2022-08-26T13:31:58.950Z,25.54
2022-08-26T13:37:00.553Z,25.53
2022-08-26T13:42:02.083Z,25.39
2022-08-26T13:47:03.692Z,25.68
2022-08-26T13:52:05.210Z,25.37
2022-08-26T13:57:06.809Z,25.85
2022-08-26T14:02:08.327Z,25.91
2022-08-26T14:07:11.523Z,25.92
2022-08-26T14:12:13.061Z,25.52
2022-08-26T14:17:21.260Z,25.62
2022-08-26T14:22:22.813Z,26.27
2022-08-26T14:27:25.275Z,26.27
2022-08-26T14:32:27.413Z,25.92
2022-08-26T14:37:28.935Z,25.73
2022-08-26T14:42:31.413Z,25.53
2022-08-26T14:47:33.260Z,25.46
2022-08-26T14:52:54.764Z,25.56
2022-08-26T14:57:56.380Z,25.84
2022-08-26T15:02:58.432Z,25.81
2022-08-26T15:08:00.450Z,25.83
2022-08-26T15:13:02.552Z,25.78
2022-08-26T15:18:04.159Z,25.59
2022-08-26T15:23:07.379Z,25.58
2022-08-26T15:28:09.241Z,25.66
2022-08-26T15:33:15.285Z,25.51
2022-08-26T15:38:17.984Z,25.50
2022-08-26T15:43:28.659Z,25.36
2022-08-26T15:48:30.717Z,25.72
2022-08-26T15:53:33.362Z,25.32
2022-08-26T15:58:34.939Z,25.48
2022-08-26T16:03:37.796Z,25.38
2022-08-26T16:08:39.306Z,24.95
2022-08-26T16:13:40.846Z,25.07
2022-08-26T16:18:42.548Z,24.95
2022-08-26T16:23:44.965Z,25.04
2022-08-26T16:28:47.375Z,24.74
2022-08-26T16:33:48.912Z,24.84
2022-08-26T16:38:56.197Z,24.49
2022-08-26T16:43:57.815Z,24.36
2022-08-26T16:48:59.359Z,24.31
2022-08-26T16:54:01.603Z,24.29
2022-08-26T16:59:04.892Z,24.29
2022-08-26T17:04:06.468Z,24.24
2022-08-26T17:09:08.066Z,23.96
2022-08-26T17:14:09.989Z,23.96
2022-08-26T17:19:11.595Z,24.11
2022-08-26T17:24:13.142Z,24.01
2022-08-26T17:29:14.700Z,23.98
2022-08-26T17:34:16.789Z,23.82
2022-08-26T17:39:18.312Z,23.78
2022-08-26T17:44:19.848Z,23.47
2022-08-26T17:49:21.383Z,23.76
2022-08-26T17:54:22.920Z,23.90
2022-08-26T17:59:24.667Z,24.06
2022-08-26T18:04:32.184Z,23.84
2022-08-26T18:09:33.759Z,23.93
2022-08-26T18:14:35.331Z,23.37
2022-08-26T18:19:36.907Z,23.53
2022-08-26T18:24:39.924Z,23.81
2022-08-26T18:29:58.049Z,23.65
2022-08-26T18:34:59.737Z,23.71
2022-08-26T18:40:01.424Z,23.77
2022-08-26T18:45:04.545Z,23.67
2022-08-26T18:50:06.626Z,23.60
2022-08-26T18:55:08.438Z,23.79
2022-08-26T19:00:11.337Z,23.69
2022-08-26T19:05:12.873Z,23.65
2022-08-26T19:10:14.430Z,23.89
2022-08-26T19:15:16.034Z,23.63
2022-08-26T19:20:17.596Z,23.66
2022-08-26T19:25:19.186Z,23.71
2022-08-26T19:30:20.875Z,23.75
2022-08-26T19:35:22.410Z,23.81
2022-08-26T19:40:24.096Z,23.77
2022-08-26T19:45:25.689Z,23.94
2022-08-26T19:50:28.526Z,23.90
2022-08-26T19:55:30.207Z,23.93
2022-08-26T20:00:31.981Z,23.92
2022-08-26T20:05:33.498Z,23.91
2022-08-26T20:10:35.847Z,23.60
2022-08-26T20:15:37.348Z,23.55
2022-08-26T20:20:57.312Z,23.54
2022-08-26T20:25:58.819Z,23.43
2022-08-26T20:31:00.597Z,23.61
2022-08-26T20:36:02.778Z,23.62
2022-08-26T20:41:08.886Z,23.49
2022-08-26T20:46:18.003Z,23.53
2022-08-26T20:51:21.154Z,23.21
2022-08-26T20:56:24.874Z,23.15
2022-08-26T21:01:30.522Z,23.25
2022-08-26T21:06:35.212Z,23.47
2022-08-26T21:11:37.213Z,22.90
2022-08-26T21:16:38.894Z,23.19
2022-08-26T21:21:40.913Z,22.95
2022-08-26T21:26:42.361Z,22.94
2022-08-26T21:31:46.367Z,22.77
2022-08-26T21:36:48.351Z,22.85
2022-08-26T21:41:49.887Z,22.94
2022-08-26T21:46:51.394Z,22.97
2022-08-26T21:51:52.932Z,22.94
2022-08-26T21:56:54.455Z,22.92
2022-08-26T22:01:56.917Z,22.93
2022-08-26T22:06:58.897Z,22.82
2022-08-26T22:12:00.561Z,23.11
2022-08-26T22:17:02.648Z,22.96
2022-08-26T22:22:04.255Z,22.65
2022-08-26T22:27:05.762Z,22.59
2022-08-26T22:32:07.391Z,22.97
2022-08-26T22:37:08.931Z,22.96
2022-08-26T22:42:10.454Z,22.97
2022-08-26T22:47:11.977Z,22.91
2022-08-26T22:52:13.501Z,22.87
2022-08-26T22:57:15.010Z,23.14
2022-08-26T23:02:16.563Z,22.89
2022-08-26T23:07:18.811Z,22.63
2022-08-26T23:12:20.334Z,23.11
2022-08-26T23:17:21.853Z,23.24
2022-08-26T23:22:23.533Z,23.03
2022-08-26T23:27:25.046Z,23.20
2022-08-26T23:32:26.573Z,23.04
2022-08-26T23:37:40.787Z,23.02
2022-08-26T23:42:42.542Z,23.05
2022-08-26T23:47:44.756Z,23.00
2022-08-26T23:53:04.656Z,23.07
2022-08-26T23:58:06.295Z,23.21
